sensor_id;sensor_type;location;lat;lon;timestamp;pressure;altitude;pressure_sealevel;temperature;humidity
50933;BME280;36921;49.006;9.292;2024-01-30T00:00:17;100192.69;;;0.83;100.00
50933;BME280;36921;49.006;9.292;2024-01-30T00:02:42;100188.66;;;0.78;100.00
50933;BME280;36921;49.006;9.292;2024-01-30T00:05:08;100187.19;;;0.74;100.00
50933;BME280;36921;49.006;9.292;2024-01-30T00:07:33;100192.28;;;0.77;100.00
50933;BME280;36921;49.006;9.292;2024-01-30T00:09:59;100195.06;;;0.75;100.00
50933;BME280;36921;49.006;9.292;2024-01-30T00:12:25;100194.19;;;0.75;100.00
50933;BME280;36921;49.006;9.292;2024-01-30T00:14:51;100187.59;;;0.68;100.00
50933;BME280;36921;49.006;9.292;2024-01-30T00:17:17;100192.38;;;0.62;100.00
50933;BME280;36921;49.006;9.292;2024-01-30T00:19:42;100181.94;;;0.59;100.00
50933;BME280;36921;49.006;9.292;2024-01-30T00:22:07;100190.38;;;0.66;100.00
50933;BME280;36921;49.006;9.292;2024-01-30T00:24:33;100195.91;;;0.76;100.00
50933;BME280;36921;49.006;9.292;2024-01-30T00:26:58;100200.06;;;0.80;100.00
50933;BME280;36921;49.006;9.292;2024-01-30T00:29:24;100191.09;;;0.81;100.00
50933;BME280;36921;49.006;9.292;2024-01-30T00:31:50;100186.75;;;0.80;100.00
50933;BME280;36921;49.006;9.292;2024-01-30T00:34:16;100191.41;;;0.89;100.00
50933;BME280;36921;49.006;9.292;2024-01-30T00:36:41;100189.84;;;0.86;100.00
50933;BME280;36921;49.006;9.292;2024-01-30T00:39:06;100197.94;;;0.85;100.00
50933;BME280;36921;49.006;9.292;2024-01-30T00:41:34;100188.03;;;0.87;100.00
50933;BME280;36921;49.006;9.292;2024-01-30T00:43:59;100193.13;;;0.90;100.00
50933;BME280;36921;49.006;9.292;2024-01-30T00:46:25;100198.69;;;0.87;100.00
50933;BME280;36921;49.006;9.292;2024-01-30T00:48:50;100202.28;;;0.86;100.00
50933;BME280;36921;49.006;9.292;2024-01-30T00:51:16;100202.50;;;0.96;100.00
50933;BME280;36921;49.006;9.292;2024-01-30T00:53:41;100202.50;;;0.96;100.00
50933;BME280;36921;49.006;9.292;2024-01-30T00:56:09;100203.47;;;0.95;100.00
50933;BME280;36921;49.006;9.292;2024-01-30T00:58:34;100197.72;;;1.01;100.00
50933;BME280;36921;49.006;9.292;2024-01-30T01:03:51;100191.63;;;0.99;100.00
50933;BME280;36921;49.006;9.292;2024-01-30T01:06:16;100188.97;;;0.99;100.00
50933;BME280;36921;49.006;9.292;2024-01-30T01:08:42;100200.28;;;1.02;100.00
50933;BME280;36921;49.006;9.292;2024-01-30T01:11:07;100196.03;;;1.00;100.00
50933;BME280;36921;49.006;9.292;2024-01-30T01:13:33;100195.28;;;0.98;100.00
50933;BME280;36921;49.006;9.292;2024-01-30T01:15:58;100194.59;;;0.94;100.00
50933;BME280;36921;49.006;9.292;2024-01-30T01:18:23;100197.84;;;0.86;100.00
50933;BME280;36921;49.006;9.292;2024-01-30T01:20:49;100196.44;;;0.81;100.00
50933;BME280;36921;49.006;9.292;2024-01-30T01:23:14;100198.38;;;0.79;100.00
50933;BME280;36921;49.006;9.292;2024-01-30T01:25:40;100193.44;;;0.85;100.00
50933;BME280;36921;49.006;9.292;2024-01-30T01:28:05;100192.81;;;0.82;100.00
50933;BME280;36921;49.006;9.292;2024-01-30T01:30:31;100182.38;;;0.79;100.00
50933;BME280;36921;49.006;9.292;2024-01-30T01:32:56;100190.56;;;0.88;100.00
50933;BME280;36921;49.006;9.292;2024-01-30T01:35:25;100199.53;;;0.87;100.00
50933;BME280;36921;49.006;9.292;2024-01-30T01:37:52;100194.84;;;0.91;100.00
50933;BME280;36921;49.006;9.292;2024-01-30T01:40:22;100186.09;;;0.89;100.00
50933;BME280;36921;49.006;9.292;2024-01-30T01:42:49;100188.03;;;0.87;100.00
50933;BME280;36921;49.006;9.292;2024-01-30T01:45:15;100188.88;;;0.87;100.00
50933;BME280;36921;49.006;9.292;2024-01-30T01:47:41;100186.97;;;0.77;100.00
50933;BME280;36921;49.006;9.292;2024-01-30T01:50:07;100173.44;;;0.67;100.00
50933;BME280;36921;49.006;9.292;2024-01-30T01:52:32;100177.69;;;0.70;100.00
50933;BME280;36921;49.006;9.292;2024-01-30T01:54:58;100167.16;;;0.55;100.00
50933;BME280;36921;49.006;9.292;2024-01-30T01:57:23;100178.00;;;0.52;100.00
50933;BME280;36921;49.006;9.292;2024-01-30T01:59:48;100175.22;;;0.41;100.00
50933;BME280;36921;49.006;9.292;2024-01-30T02:02:14;100177.75;;;0.30;100.00
50933;BME280;36921;49.006;9.292;2024-01-30T02:04:42;100148.22;;;0.07;100.00
50933;BME280;36921;49.006;9.292;2024-01-30T02:07:08;100186.50;;;0.32;100.00
50933;BME280;36921;49.006;9.292;2024-01-30T02:09:33;100192.03;;;0.41;100.00
50933;BME280;36921;49.006;9.292;2024-01-30T02:11:58;100189.50;;;0.40;100.00
50933;BME280;36921;49.006;9.292;2024-01-30T02:14:24;100179.47;;;0.31;100.00
50933;BME280;36921;49.006;9.292;2024-01-30T02:16:49;100188.41;;;0.30;100.00
50933;BME280;36921;49.006;9.292;2024-01-30T02:19:14;100190.84;;;0.20;100.00
50933;BME280;36921;49.006;9.292;2024-01-30T02:21:39;100187.03;;;0.24;100.00
50933;BME280;36921;49.006;9.292;2024-01-30T02:24:05;100149.75;;;0.11;100.00
50933;BME280;36921;49.006;9.292;2024-01-30T02:26:30;100185.97;;;0.27;100.00
50933;BME280;36921;49.006;9.292;2024-01-30T02:28:56;100193.94;;;0.27;100.00
50933;BME280;36921;49.006;9.292;2024-01-30T02:31:21;100180.38;;;0.04;100.00
50933;BME280;36921;49.006;9.292;2024-01-30T02:33:46;100179.94;;;0.10;100.00
50933;BME280;36921;49.006;9.292;2024-01-30T02:36:11;100177.47;;;-0.06;100.00
50933;BME280;36921;49.006;9.292;2024-01-30T02:38:37;100171.78;;;-0.14;100.00
50933;BME280;36921;49.006;9.292;2024-01-30T02:41:02;100176.34;;;-0.16;100.00
50933;BME280;36921;49.006;9.292;2024-01-30T02:43:27;100181.38;;;-0.11;100.00
50933;BME280;36921;49.006;9.292;2024-01-30T02:45:53;100154.44;;;-0.19;100.00
50933;BME280;36921;49.006;9.292;2024-01-30T02:48:18;100192.38;;;-0.03;100.00
50933;BME280;36921;49.006;9.292;2024-01-30T02:50:43;100183.44;;;-0.02;100.00
50933;BME280;36921;49.006;9.292;2024-01-30T02:53:08;100173.44;;;0.02;100.00
50933;BME280;36921;49.006;9.292;2024-01-30T02:55:34;100185.56;;;-0.07;100.00
50933;BME280;36921;49.006;9.292;2024-01-30T02:57:59;100179.81;;;-0.01;100.00
50933;BME280;36921;49.006;9.292;2024-01-30T03:00:24;100159.75;;;-0.19;100.00
50933;BME280;36921;49.006;9.292;2024-01-30T03:02:50;100189.81;;;-0.05;100.00
50933;BME280;36921;49.006;9.292;2024-01-30T03:05:15;100162.56;;;-0.08;100.00
50933;BME280;36921;49.006;9.292;2024-01-30T03:07:40;100182.06;;;-0.08;100.00
50933;BME280;36921;49.006;9.292;2024-01-30T03:10:06;100187.88;;;-0.15;100.00
50933;BME280;36921;49.006;9.292;2024-01-30T03:12:31;100181.25;;;-0.23;100.00
50933;BME280;36921;49.006;9.292;2024-01-30T03:14:57;100179.09;;;-0.30;100.00
50933;BME280;36921;49.006;9.292;2024-01-30T03:17:22;100177.53;;;-0.47;100.00
50933;BME280;36921;49.006;9.292;2024-01-30T03:19:49;100180.28;;;-0.49;100.00
50933;BME280;36921;49.006;9.292;2024-01-30T03:22:14;100191.56;;;-0.45;100.00
50933;BME280;36921;49.006;9.292;2024-01-30T03:24:40;100176.22;;;-0.54;100.00
50933;BME280;36921;49.006;9.292;2024-01-30T03:27:05;100162.56;;;-0.62;100.00
50933;BME280;36921;49.006;9.292;2024-01-30T03:29:30;100194.34;;;-0.47;100.00
50933;BME280;36921;49.006;9.292;2024-01-30T03:31:55;100164.81;;;-0.56;100.00
50933;BME280;36921;49.006;9.292;2024-01-30T03:34:21;100188.16;;;-0.47;100.00
50933;BME280;36921;49.006;9.292;2024-01-30T03:36:46;100193.84;;;-0.53;100.00
50933;BME280;36921;49.006;9.292;2024-01-30T03:39:12;100165.03;;;-0.74;100.00
50933;BME280;36921;49.006;9.292;2024-01-30T03:41:37;100187.78;;;-0.55;100.00
50933;BME280;36921;49.006;9.292;2024-01-30T03:44:03;100203.91;;;-0.44;100.00
50933;BME280;36921;49.006;9.292;2024-01-30T03:46:28;100174.81;;;-0.60;100.00
50933;BME280;36921;49.006;9.292;2024-01-30T03:48:53;100149.09;;;-0.74;100.00
50933;BME280;36921;49.006;9.292;2024-01-30T03:51:19;100206.56;;;-0.44;100.00
50933;BME280;36921;49.006;9.292;2024-01-30T03:53:45;100203.25;;;-0.48;100.00
50933;BME280;36921;49.006;9.292;2024-01-30T03:56:13;100185.63;;;-0.63;100.00
50933;BME280;36921;49.006;9.292;2024-01-30T03:58:39;100185.44;;;-0.60;100.00
50933;BME280;36921;49.006;9.292;2024-01-30T04:01:04;100203.59;;;-0.39;100.00
50933;BME280;36921;49.006;9.292;2024-01-30T04:03:30;100204.75;;;-0.43;100.00
50933;BME280;36921;49.006;9.292;2024-01-30T04:05:55;100217.41;;;-0.47;100.00
50933;BME280;36921;49.006;9.292;2024-01-30T04:08:20;100208.06;;;-0.40;100.00
50933;BME280;36921;49.006;9.292;2024-01-30T04:10:47;100204.75;;;-0.43;100.00
50933;BME280;36921;49.006;9.292;2024-01-30T04:13:13;100191.56;;;-0.45;100.00
50933;BME280;36921;49.006;9.292;2024-01-30T04:15:39;100208.47;;;-0.46;100.00
50933;BME280;36921;49.006;9.292;2024-01-30T04:18:05;100206.22;;;-0.52;100.00
50933;BME280;36921;49.006;9.292;2024-01-30T04:20:30;100186.78;;;-0.67;100.00
50933;BME280;36921;49.006;9.292;2024-01-30T04:22:58;100199.97;;;-0.65;100.00
50933;BME280;36921;49.006;9.292;2024-01-30T04:25:24;100205.75;;;-0.59;100.00
50933;BME280;36921;49.006;9.292;2024-01-30T04:27:50;100186.00;;;-0.69;100.00
50933;BME280;36921;49.006;9.292;2024-01-30T04:30:18;100197.00;;;-0.61;100.00
50933;BME280;36921;49.006;9.292;2024-01-30T04:32:45;100177.47;;;-0.74;100.00
50933;BME280;36921;49.006;9.292;2024-01-30T04:35:10;100190.28;;;-0.67;100.00
50933;BME280;36921;49.006;9.292;2024-01-30T04:37:41;100188.09;;;-0.60;100.00
50933;BME280;36921;49.006;9.292;2024-01-30T04:40:06;100176.16;;;-0.67;100.00
50933;BME280;36921;49.006;9.292;2024-01-30T04:42:32;100173.00;;;-0.74;100.00
50933;BME280;36921;49.006;9.292;2024-01-30T04:45:01;100184.13;;;-0.67;100.00
50933;BME280;36921;49.006;9.292;2024-01-30T04:47:29;100199.78;;;-0.62;100.00
50933;BME280;36921;49.006;9.292;2024-01-30T04:49:55;100180.97;;;-0.74;100.00
50933;BME280;36921;49.006;9.292;2024-01-30T04:52:21;100181.75;;;-0.72;100.00
50933;BME280;36921;49.006;9.292;2024-01-30T04:54:46;100182.72;;;-0.73;100.00
50933;BME280;36921;49.006;9.292;2024-01-30T04:57:11;100191.25;;;-0.68;100.00
50933;BME280;36921;49.006;9.292;2024-01-30T04:59:37;100200.72;;;-0.63;100.00
50933;BME280;36921;49.006;9.292;2024-01-30T05:02:02;100195.31;;;-0.62;100.00
50933;BME280;36921;49.006;9.292;2024-01-30T05:04:29;100188.47;;;-0.66;100.00
50933;BME280;36921;49.006;9.292;2024-01-30T05:06:55;100184.19;;;-0.69;100.00
50933;BME280;36921;49.006;9.292;2024-01-30T05:09:20;100181.88;;;-0.73;100.00
50933;BME280;36921;49.006;9.292;2024-01-30T05:11:45;100188.75;;;-0.56;100.00
50933;BME280;36921;49.006;9.292;2024-01-30T05:14:12;100197.97;;;-0.62;100.00
50933;BME280;36921;49.006;9.292;2024-01-30T05:16:37;100178.53;;;-0.77;100.00
50933;BME280;36921;49.006;9.292;2024-01-30T05:19:03;100180.06;;;-0.87;100.00
50933;BME280;36921;49.006;9.292;2024-01-30T05:21:28;100195.44;;;-0.78;100.00
50933;BME280;36921;49.006;9.292;2024-01-30T05:23:53;100204.53;;;-0.68;100.00
50933;BME280;36921;49.006;9.292;2024-01-30T05:26:22;100190.41;;;-0.68;100.00
50933;BME280;36921;49.006;9.292;2024-01-30T05:28:48;100188.09;;;-0.74;100.00
50933;BME280;36921;49.006;9.292;2024-01-30T05:31:13;100191.31;;;-0.69;100.00
50933;BME280;36921;49.006;9.292;2024-01-30T05:33:40;100195.59;;;-0.67;100.00
50933;BME280;36921;49.006;9.292;2024-01-30T05:36:06;100170.56;;;-0.77;100.00
50933;BME280;36921;49.006;9.292;2024-01-30T05:38:31;100215.31;;;-0.56;100.00
50933;BME280;36921;49.006;9.292;2024-01-30T05:40:57;100218.19;;;-0.59;100.00
50933;BME280;36921;49.006;9.292;2024-01-30T05:43:27;100217.81;;;-0.68;100.00
50933;BME280;36921;49.006;9.292;2024-01-30T05:45:53;100223.22;;;-0.69;100.00
50933;BME280;36921;49.006;9.292;2024-01-30T05:48:18;100213.75;;;-0.73;100.00
50933;BME280;36921;49.006;9.292;2024-01-30T05:50:43;100177.50;;;-1.03;100.00
50933;BME280;36921;49.006;9.292;2024-01-30T05:53:10;100225.44;;;-0.76;100.00
50933;BME280;36921;49.006;9.292;2024-01-30T05:55:35;100221.25;;;-0.80;100.00
50933;BME280;36921;49.006;9.292;2024-01-30T05:58:01;100232.72;;;-0.79;100.00
50933;BME280;36921;49.006;9.292;2024-01-30T06:00:26;100239.06;;;-0.82;100.00
50933;BME280;36921;49.006;9.292;2024-01-30T06:02:52;100232.06;;;-0.83;100.00
50933;BME280;36921;49.006;9.292;2024-01-30T06:05:17;100236.72;;;-0.72;100.00
50933;BME280;36921;49.006;9.292;2024-01-30T06:07:42;100238.59;;;-0.74;100.00
50933;BME280;36921;49.006;9.292;2024-01-30T06:10:08;100233.97;;;-0.71;100.00
50933;BME280;36921;49.006;9.292;2024-01-30T06:12:34;100238.22;;;-0.68;100.00
50933;BME280;36921;49.006;9.292;2024-01-30T06:15:00;100214.03;;;-0.78;100.00
50933;BME280;36921;49.006;9.292;2024-01-30T06:17:26;100237.34;;;-0.69;100.00
50933;BME280;36921;49.006;9.292;2024-01-30T06:19:51;100238.47;;;-0.58;100.00
50933;BME280;36921;49.006;9.292;2024-01-30T06:22:16;100220.00;;;-0.60;100.00
50933;BME280;36921;49.006;9.292;2024-01-30T06:24:42;100224.53;;;-0.62;100.00
50933;BME280;36921;49.006;9.292;2024-01-30T06:27:10;100220.69;;;-0.71;100.00
50933;BME280;36921;49.006;9.292;2024-01-30T06:29:35;100227.59;;;-0.68;100.00
50933;BME280;36921;49.006;9.292;2024-01-30T06:32:01;100225.22;;;-0.73;100.00
50933;BME280;36921;49.006;9.292;2024-01-30T06:34:26;100225.22;;;-0.73;100.00
50933;BME280;36921;49.006;9.292;2024-01-30T06:36:52;100228.53;;;-0.69;100.00
50933;BME280;36921;49.006;9.292;2024-01-30T06:39:17;100233.38;;;-0.61;100.00
50933;BME280;36921;49.006;9.292;2024-01-30T06:41:43;100233.16;;;-0.58;100.00
50933;BME280;36921;49.006;9.292;2024-01-30T06:44:09;100235.16;;;-0.48;100.00
50933;BME280;36921;49.006;9.292;2024-01-30T06:46:35;100230.03;;;-0.51;100.00
50933;BME280;36921;49.006;9.292;2024-01-30T06:49:00;100236.19;;;-0.50;100.00
50933;BME280;36921;49.006;9.292;2024-01-30T06:51:26;100238.28;;;-0.41;100.00
50933;BME280;36921;49.006;9.292;2024-01-30T06:53:51;100231.44;;;-0.45;100.00
50933;BME280;36921;49.006;9.292;2024-01-30T06:56:17;100224.81;;;-0.52;100.00
50933;BME280;36921;49.006;9.292;2024-01-30T06:58:52;100237.72;;;-0.46;100.00
50933;BME280;36921;49.006;9.292;2024-01-30T07:01:17;100239.97;;;-0.40;100.00
50933;BME280;36921;49.006;9.292;2024-01-30T07:03:43;100236.25;;;-0.37;100.00
50933;BME280;36921;49.006;9.292;2024-01-30T07:06:09;100229.69;;;-0.32;100.00
50933;BME280;36921;49.006;9.292;2024-01-30T07:08:36;100233.78;;;-0.26;100.00
50933;BME280;36921;49.006;9.292;2024-01-30T07:11:02;100227.22;;;-0.20;100.00
50933;BME280;36921;49.006;9.292;2024-01-30T07:13:28;100235.25;;;-0.08;100.00
50933;BME280;36921;49.006;9.292;2024-01-30T07:15:53;100246.13;;;0.02;100.00
50933;BME280;36921;49.006;9.292;2024-01-30T07:18:19;100243.94;;;0.09;100.00
50933;BME280;36921;49.006;9.292;2024-01-30T07:20:44;100241.16;;;0.10;100.00
50933;BME280;36921;49.006;9.292;2024-01-30T07:23:14;100247.47;;;0.22;100.00
50933;BME280;36921;49.006;9.292;2024-01-30T07:25:43;100234.59;;;0.29;100.00
50933;BME280;36921;49.006;9.292;2024-01-30T07:28:08;100241.22;;;0.36;100.00
50933;BME280;36921;49.006;9.292;2024-01-30T07:30:42;100235.31;;;0.45;100.00
50933;BME280;36921;49.006;9.292;2024-01-30T07:33:07;100239.78;;;0.57;100.00
50933;BME280;36921;49.006;9.292;2024-01-30T07:35:33;100237.78;;;0.61;100.00
50933;BME280;36921;49.006;9.292;2024-01-30T07:37:59;100235.13;;;0.74;100.00
50933;BME280;36921;49.006;9.292;2024-01-30T07:40:24;100225.41;;;0.85;100.00
50933;BME280;36921;49.006;9.292;2024-01-30T07:42:50;100234.03;;;0.89;100.00
50933;BME280;36921;49.006;9.292;2024-01-30T07:45:15;100223.81;;;1.08;100.00
50933;BME280;36921;49.006;9.292;2024-01-30T07:47:41;100234.47;;;1.34;100.00
50933;BME280;36921;49.006;9.292;2024-01-30T07:50:07;100215.41;;;1.51;100.00
50933;BME280;36921;49.006;9.292;2024-01-30T07:52:34;100221.00;;;1.72;100.00
50933;BME280;36921;49.006;9.292;2024-01-30T07:55:00;100209.69;;;1.82;100.00
50933;BME280;36921;49.006;9.292;2024-01-30T07:57:25;100215.34;;;2.01;100.00
50933;BME280;36921;49.006;9.292;2024-01-30T07:59:50;100211.31;;;1.95;100.00
50933;BME280;36921;49.006;9.292;2024-01-30T08:02:16;100211.50;;;2.40;100.00
50933;BME280;36921;49.006;9.292;2024-01-30T08:04:41;100206.03;;;2.89;100.00
50933;BME280;36921;49.006;9.292;2024-01-30T08:07:07;100206.28;;;3.42;100.00
50933;BME280;36921;49.006;9.292;2024-01-30T08:09:32;100193.41;;;3.47;100.00
50933;BME280;36921;49.006;9.292;2024-01-30T08:11:58;100204.50;;;4.18;100.00
50933;BME280;36921;49.006;9.292;2024-01-30T08:14:23;100191.34;;;5.20;100.00
50933;BME280;36921;49.006;9.292;2024-01-30T08:16:49;100196.44;;;5.73;100.00
50933;BME280;36921;49.006;9.292;2024-01-30T08:19:15;100196.13;;;6.07;100.00
50933;BME280;36921;49.006;9.292;2024-01-30T08:21:40;100198.22;;;6.13;100.00
50933;BME280;36921;49.006;9.292;2024-01-30T08:24:09;100194.28;;;6.66;100.00
50933;BME280;36921;49.006;9.292;2024-01-30T08:26:34;100193.00;;;7.17;100.00
50933;BME280;36921;49.006;9.292;2024-01-30T08:29:01;100196.06;;;7.59;100.00
50933;BME280;36921;49.006;9.292;2024-01-30T08:31:26;100199.06;;;8.20;100.00
50933;BME280;36921;49.006;9.292;2024-01-30T08:33:52;100200.84;;;8.11;100.00
50933;BME280;36921;49.006;9.292;2024-01-30T08:36:17;100202.00;;;8.08;100.00
50933;BME280;36921;49.006;9.292;2024-01-30T08:38:43;100203.63;;;8.73;100.00
50933;BME280;36921;49.006;9.292;2024-01-30T08:41:08;100200.72;;;9.18;100.00
50933;BME280;36921;49.006;9.292;2024-01-30T08:43:34;100209.34;;;8.96;100.00
50933;BME280;36921;49.006;9.292;2024-01-30T08:46:00;100208.13;;;9.51;100.00
50933;BME280;36921;49.006;9.292;2024-01-30T08:48:26;100203.09;;;10.06;99.77
50933;BME280;36921;49.006;9.292;2024-01-30T08:50:52;100194.22;;;10.30;95.76
50933;BME280;36921;49.006;9.292;2024-01-30T08:53:18;100200.56;;;10.13;98.06
50933;BME280;36921;49.006;9.292;2024-01-30T08:55:44;100204.38;;;10.61;100.00
50933;BME280;36921;49.006;9.292;2024-01-30T08:58:09;100210.97;;;10.75;91.58
50933;BME280;36921;49.006;9.292;2024-01-30T09:00:34;100211.63;;;10.85;89.79
50933;BME280;36921;49.006;9.292;2024-01-30T09:03:00;100208.63;;;11.44;85.98
50933;BME280;36921;49.006;9.292;2024-01-30T09:05:25;100210.53;;;11.35;83.85
50933;BME280;36921;49.006;9.292;2024-01-30T09:07:51;100216.84;;;11.19;85.31
50933;BME280;36921;49.006;9.292;2024-01-30T09:10:16;100223.81;;;11.06;88.14
50933;BME280;36921;49.006;9.292;2024-01-30T09:12:44;100219.44;;;10.72;85.10
50933;BME280;36921;49.006;9.292;2024-01-30T09:15:10;100213.56;;;10.01;93.24
50933;BME280;36921;49.006;9.292;2024-01-30T09:17:35;100217.22;;;8.45;100.00
50933;BME280;36921;49.006;9.292;2024-01-30T09:20:01;100222.34;;;8.21;100.00
50933;BME280;36921;49.006;9.292;2024-01-30T09:22:26;100218.31;;;8.25;100.00
50933;BME280;36921;49.006;9.292;2024-01-30T09:24:52;100220.75;;;8.64;100.00
50933;BME280;36921;49.006;9.292;2024-01-30T09:27:17;100221.00;;;8.52;100.00
50933;BME280;36921;49.006;9.292;2024-01-30T09:29:43;100219.75;;;9.43;100.00
50933;BME280;36921;49.006;9.292;2024-01-30T09:32:08;100220.88;;;10.25;100.00
50933;BME280;36921;49.006;9.292;2024-01-30T09:34:34;100216.19;;;10.77;100.00
50933;BME280;36921;49.006;9.292;2024-01-30T09:37:00;100214.63;;;12.10;92.53
50933;BME280;36921;49.006;9.292;2024-01-30T09:39:26;100212.53;;;12.89;85.38
50933;BME280;36921;49.006;9.292;2024-01-30T09:44:46;100219.44;;;13.89;77.69
50933;BME280;36921;49.006;9.292;2024-01-30T09:47:14;100219.63;;;13.58;74.80
50933;BME280;36921;49.006;9.292;2024-01-30T09:49:42;100217.75;;;14.46;73.97
50933;BME280;36921;49.006;9.292;2024-01-30T09:52:08;100210.94;;;15.28;71.87
50933;BME280;36921;49.006;9.292;2024-01-30T09:54:34;100213.09;;;15.74;66.02
50933;BME280;36921;49.006;9.292;2024-01-30T09:57:00;100223.13;;;15.32;65.19
50933;BME280;36921;49.006;9.292;2024-01-30T09:59:25;100214.56;;;15.07;66.60
50933;BME280;36921;49.006;9.292;2024-01-30T10:01:51;100219.53;;;15.66;67.95
50933;BME280;36921;49.006;9.292;2024-01-30T10:04:17;100213.56;;;15.77;66.63
50933;BME280;36921;49.006;9.292;2024-01-30T10:06:42;100215.03;;;16.41;64.56
50933;BME280;36921;49.006;9.292;2024-01-30T10:09:08;100211.13;;;16.84;63.77
50933;BME280;36921;49.006;9.292;2024-01-30T10:11:36;100215.34;;;15.98;64.60
50933;BME280;36921;49.006;9.292;2024-01-30T10:14:04;100215.31;;;16.86;63.79
50933;BME280;36921;49.006;9.292;2024-01-30T10:16:31;100211.34;;;16.01;65.54
50933;BME280;36921;49.006;9.292;2024-01-30T10:18:56;100207.91;;;16.74;64.33
50933;BME280;36921;49.006;9.292;2024-01-30T10:21:22;100224.00;;;15.39;64.10
50933;BME280;36921;49.006;9.292;2024-01-30T10:23:49;100212.66;;;15.36;65.75
50933;BME280;36921;49.006;9.292;2024-01-30T10:26:16;100218.78;;;14.60;68.92
50933;BME280;36921;49.006;9.292;2024-01-30T10:28:42;100217.72;;;13.88;69.87
50933;BME280;36921;49.006;9.292;2024-01-30T10:31:08;100208.16;;;12.80;72.46
50933;BME280;36921;49.006;9.292;2024-01-30T10:33:34;100208.09;;;11.96;78.89
50933;BME280;36921;49.006;9.292;2024-01-30T10:36:01;100206.38;;;12.49;81.68
50933;BME280;36921;49.006;9.292;2024-01-30T10:38:31;100205.44;;;11.88;99.47
50933;BME280;36921;49.006;9.292;2024-01-30T10:40:59;100199.75;;;11.67;100.00
50933;BME280;36921;49.006;9.292;2024-01-30T10:43:32;100204.91;;;11.45;100.00
50933;BME280;36921;49.006;9.292;2024-01-30T10:48:43;100192.44;;;11.19;100.00
50933;BME280;36921;49.006;9.292;2024-01-30T10:51:13;100198.09;;;10.93;100.00
50933;BME280;36921;49.006;9.292;2024-01-30T10:53:39;100194.53;;;10.77;100.00
50933;BME280;36921;49.006;9.292;2024-01-30T10:56:05;100199.25;;;11.07;100.00
50933;BME280;36921;49.006;9.292;2024-01-30T10:58:31;100201.84;;;11.48;100.00
50933;BME280;36921;49.006;9.292;2024-01-30T11:00:58;100191.59;;;11.67;100.00
50933;BME280;36921;49.006;9.292;2024-01-30T11:03:24;100199.53;;;12.07;100.00
50933;BME280;36921;49.006;9.292;2024-01-30T11:05:50;100203.19;;;12.00;100.00
50933;BME280;36921;49.006;9.292;2024-01-30T11:08:23;100188.28;;;12.65;100.00
50933;BME280;36921;49.006;9.292;2024-01-30T11:10:49;100189.91;;;12.89;100.00
50933;BME280;36921;49.006;9.292;2024-01-30T11:13:15;100203.41;;;12.44;100.00
50933;BME280;36921;49.006;9.292;2024-01-30T11:15:42;100188.34;;;12.57;100.00
50933;BME280;36921;49.006;9.292;2024-01-30T11:18:07;100196.06;;;13.06;100.00
50933;BME280;36921;49.006;9.292;2024-01-30T11:20:33;100191.56;;;13.13;100.00
50933;BME280;36921;49.006;9.292;2024-01-30T11:23:01;100185.47;;;12.73;100.00
50933;BME280;36921;49.006;9.292;2024-01-30T11:25:32;100187.22;;;12.51;100.00
50933;BME280;36921;49.006;9.292;2024-01-30T11:27:58;100182.66;;;12.66;100.00
50933;BME280;36921;49.006;9.292;2024-01-30T11:30:29;100187.31;;;12.96;100.00
50933;BME280;36921;49.006;9.292;2024-01-30T11:33:06;100184.56;;;12.66;100.00
50933;BME280;36921;49.006;9.292;2024-01-30T11:35:36;100179.41;;;12.71;100.00
50933;BME280;36921;49.006;9.292;2024-01-30T11:38:03;100177.38;;;12.04;100.00
50933;BME280;36921;49.006;9.292;2024-01-30T11:40:29;100181.28;;;12.01;100.00
50933;BME280;36921;49.006;9.292;2024-01-30T11:42:56;100172.63;;;12.29;100.00
50933;BME280;36921;49.006;9.292;2024-01-30T11:45:22;100159.94;;;11.98;100.00
50933;BME280;36921;49.006;9.292;2024-01-30T11:47:48;100173.56;;;11.90;100.00
50933;BME280;36921;49.006;9.292;2024-01-30T11:50:14;100157.41;;;12.43;100.00
50933;BME280;36921;49.006;9.292;2024-01-30T11:52:40;100152.84;;;12.20;100.00
50933;BME280;36921;49.006;9.292;2024-01-30T11:55:06;100160.00;;;12.36;100.00
50933;BME280;36921;49.006;9.292;2024-01-30T11:57:33;100160.56;;;12.32;100.00
50933;BME280;36921;49.006;9.292;2024-01-30T12:00:00;100156.88;;;12.85;100.00
50933;BME280;36921;49.006;9.292;2024-01-30T12:02:25;100152.78;;;13.19;100.00
50933;BME280;36921;49.006;9.292;2024-01-30T12:04:51;100148.25;;;12.97;100.00
50933;BME280;36921;49.006;9.292;2024-01-30T12:07:16;100131.59;;;12.85;100.00
50933;BME280;36921;49.006;9.292;2024-01-30T12:09:42;100136.13;;;12.69;100.00
50933;BME280;36921;49.006;9.292;2024-01-30T12:12:10;100148.13;;;12.75;100.00
50933;BME280;36921;49.006;9.292;2024-01-30T12:14:39;100148.50;;;12.72;100.00
50933;BME280;36921;49.006;9.292;2024-01-30T12:17:05;100146.84;;;12.71;100.00
50933;BME280;36921;49.006;9.292;2024-01-30T12:19:32;100144.28;;;12.32;100.00
50933;BME280;36921;49.006;9.292;2024-01-30T12:21:58;100142.28;;;12.48;100.00
50933;BME280;36921;49.006;9.292;2024-01-30T12:24:28;100132.06;;;12.50;100.00
50933;BME280;36921;49.006;9.292;2024-01-30T12:26:59;100145.94;;;12.56;100.00
50933;BME280;36921;49.006;9.292;2024-01-30T12:29:25;100138.59;;;12.41;100.00
50933;BME280;36921;49.006;9.292;2024-01-30T12:31:53;100142.41;;;12.70;100.00
50933;BME280;36921;49.006;9.292;2024-01-30T12:34:20;100135.09;;;12.70;100.00
50933;BME280;36921;49.006;9.292;2024-01-30T12:36:47;100127.25;;;12.38;100.00
50933;BME280;36921;49.006;9.292;2024-01-30T12:39:14;100124.31;;;12.24;100.00
50933;BME280;36921;49.006;9.292;2024-01-30T12:41:40;100136.44;;;12.37;100.00
50933;BME280;36921;49.006;9.292;2024-01-30T12:44:06;100130.88;;;12.53;100.00
50933;BME280;36921;49.006;9.292;2024-01-30T12:46:36;100134.25;;;12.55;100.00